createdAt,value
2023-06-29T00:04:28.736Z,2.08
2023-06-29T00:09:30.305Z,3.33
2023-06-29T00:14:31.782Z,3.60
2023-06-29T00:19:33.305Z,3.13
2023-06-29T00:24:43.214Z,2.50
2023-06-29T00:29:44.919Z,3.33
2023-06-29T00:34:46.456Z,2.80
2023-06-29T00:39:47.914Z,3.03
2023-06-29T00:44:51.072Z,2.45
2023-06-29T00:49:52.725Z,2.97
2023-06-29T00:54:59.304Z,2.33
2023-06-29T01:00:01.953Z,2.75
2023-06-29T01:05:05.926Z,3.15
2023-06-29T01:10:10.903Z,2.80
2023-06-29T01:15:12.688Z,2.47
2023-06-29T01:20:15.329Z,2.55
2023-06-29T01:25:16.942Z,2.72
2023-06-29T01:30:18.888Z,2.28
2023-06-29T01:35:20.347Z,3.20
2023-06-29T01:40:27.257Z,2.38
2023-06-29T01:45:28.925Z,3.05
2023-06-29T01:50:31.668Z,2.47
2023-06-29T01:55:34.052Z,3.03
2023-06-29T02:00:38.581Z,2.65
2023-06-29T02:05:40.375Z,3.90
2023-06-29T02:10:41.857Z,2.83
2023-06-29T02:15:43.465Z,2.33
2023-06-29T02:20:45.079Z,2.10
2023-06-29T02:25:46.533Z,2.92
2023-06-29T02:30:48.136Z,2.28
2023-06-29T02:35:49.680Z,2.60
2023-06-29T02:40:51.527Z,2.20
2023-06-29T02:45:52.995Z,2.33
2023-06-29T02:50:54.580Z,2.72
2023-06-29T02:55:56.047Z,2.72
2023-06-29T03:00:57.626Z,2.55
2023-06-29T03:05:59.164Z,7.85
2023-06-29T03:11:00.699Z,3.35
2023-06-29T03:16:02.416Z,3.50
2023-06-29T03:21:15.912Z,3.17
2023-06-29T03:26:18.826Z,3.47
2023-06-29T03:31:20.385Z,2.85
2023-06-29T03:36:21.964Z,2.85
2023-06-29T03:41:23.417Z,2.70
2023-06-29T03:46:25.336Z,2.42
2023-06-29T03:51:26.795Z,2.90
2023-06-29T03:56:28.302Z,2.90
2023-06-29T04:01:29.814Z,3.22
2023-06-29T04:06:31.336Z,2.50
2023-06-29T04:11:32.799Z,2.63
2023-06-29T04:16:34.339Z,2.80
2023-06-29T04:21:36.692Z,2.53
2023-06-29T04:26:39.952Z,2.50
2023-06-29T04:31:41.418Z,2.60
2023-06-29T04:36:46.998Z,1.52
2023-06-29T04:41:48.482Z,2.10
2023-06-29T04:46:49.979Z,1.77
2023-06-29T04:51:51.466Z,2.05
2023-06-29T04:56:52.937Z,1.80
2023-06-29T05:01:54.446Z,1.60
2023-06-29T05:06:56.029Z,1.70
2023-06-29T05:11:57.531Z,1.77
2023-06-29T05:16:59.189Z,1.67
2023-06-29T05:22:01.556Z,1.58
2023-06-29T05:27:03.012Z,2.20
2023-06-29T05:32:05.197Z,1.98
2023-06-29T05:37:06.700Z,2.35
2023-06-29T05:42:08.300Z,1.65
2023-06-29T05:47:10.382Z,1.70
2023-06-29T05:52:11.920Z,1.70
2023-06-29T05:57:13.500Z,1.90
2023-06-29T06:02:15.144Z,2.10
2023-06-29T06:07:27.578Z,2.17
2023-06-29T06:12:29.068Z,2.08
2023-06-29T06:17:30.571Z,2.17
2023-06-29T06:22:32.188Z,1.63
2023-06-29T06:27:33.773Z,1.67
2023-06-29T06:32:35.351Z,2.10
2023-06-29T06:37:37.898Z,1.95
2023-06-29T06:42:40.395Z,2.03
2023-06-29T06:47:41.858Z,2.10
2023-06-29T06:52:43.395Z,2.38
2023-06-29T06:57:44.858Z,1.85
2023-06-29T07:02:46.860Z,1.90
2023-06-29T07:07:48.646Z,1.95
2023-06-29T07:12:50.217Z,1.75
2023-06-29T07:17:51.840Z,1.67
2023-06-29T07:27:57.703Z,2.00
2023-06-29T07:32:59.194Z,1.48
2023-06-29T07:38:00.735Z,1.85
2023-06-29T07:43:02.187Z,1.73
2023-06-29T07:48:03.937Z,2.05
2023-06-29T07:53:05.520Z,1.77
2023-06-29T08:03:11.580Z,2.05
2023-06-29T08:08:13.732Z,2.08
2023-06-29T08:13:16.703Z,1.80
2023-06-29T08:18:18.207Z,2.10
2023-06-29T08:23:19.705Z,1.33
2023-06-29T08:28:21.220Z,1.50
2023-06-29T08:33:24.947Z,1.63
2023-06-29T08:38:26.903Z,2.03
2023-06-29T08:43:28.378Z,1.83
2023-06-29T08:48:32.646Z,2.08
2023-06-29T08:53:35.167Z,1.75
2023-06-29T08:58:37.707Z,1.92
2023-06-29T09:03:41.098Z,1.75
2023-06-29T09:08:42.855Z,2.00
2023-06-29T09:13:47.272Z,3.40
2023-06-29T09:18:55.375Z,2.05
2023-06-29T09:23:59.080Z,1.92
2023-06-29T09:29:04.998Z,2.00
2023-06-29T09:34:20.839Z,1.40
2023-06-29T09:39:22.739Z,2.08
2023-06-29T09:44:26.182Z,2.33
2023-06-29T09:49:27.811Z,1.70
2023-06-29T09:54:29.434Z,1.75
2023-06-29T09:59:35.508Z,3.03
2023-06-29T10:04:37.524Z,2.47
2023-06-29T10:09:42.715Z,2.63
2023-06-29T10:14:46.289Z,1.60
2023-06-29T10:19:49.737Z,2.42
2023-06-29T10:24:55.250Z,1.90
2023-06-29T10:29:57.044Z,2.40
2023-06-29T10:35:09.041Z,1.88
2023-06-29T10:40:20.252Z,2.30
2023-06-29T10:45:22.411Z,1.95
2023-06-29T10:50:30.759Z,1.95
2023-06-29T10:55:57.344Z,1.98
2023-06-29T11:00:58.919Z,1.75
2023-06-29T11:06:03.120Z,2.25
2023-06-29T11:11:17.534Z,1.60
2023-06-29T11:16:19.270Z,1.52
2023-06-29T11:21:22.383Z,1.58
2023-06-29T11:26:24.772Z,1.73
2023-06-29T11:31:26.734Z,1.80
2023-06-29T11:36:34.265Z,1.50
2023-06-29T11:41:39.970Z,1.30
2023-06-29T11:46:43.516Z,1.20
2023-06-29T11:51:45.300Z,1.20
2023-06-29T11:56:46.810Z,1.67
2023-06-29T12:01:48.902Z,1.52
2023-06-29T12:06:54.710Z,1.67
2023-06-29T12:11:58.001Z,1.60
2023-06-29T12:22:06.558Z,1.52
2023-06-29T12:27:08.097Z,1.50
2023-06-29T12:32:09.745Z,1.50
2023-06-29T12:37:11.263Z,1.25
2023-06-29T12:42:12.774Z,1.75
2023-06-29T12:47:14.327Z,1.90
2023-06-29T12:52:17.479Z,1.60
2023-06-29T12:57:20.197Z,1.40
2023-06-29T13:02:22.209Z,1.90
2023-06-29T13:07:24.671Z,2.05
2023-06-29T13:12:27.859Z,1.60
2023-06-29T13:17:29.378Z,2.40
2023-06-29T13:22:32.385Z,2.13
2023-06-29T13:27:34.821Z,1.73
2023-06-29T13:32:36.794Z,1.80
2023-06-29T13:37:39.355Z,1.75
2023-06-29T13:42:40.980Z,2.30
2023-06-29T13:47:43.935Z,1.88
2023-06-29T13:52:45.559Z,2.08
2023-06-29T13:57:47.066Z,2.13
2023-06-29T14:02:50.484Z,2.58
2023-06-29T14:07:52.665Z,2.10
2023-06-29T14:12:54.176Z,2.95
2023-06-29T14:17:55.752Z,2.75
2023-06-29T14:22:58.035Z,2.30
2023-06-29T14:27:59.505Z,2.70
2023-06-29T14:33:01.700Z,2.20
2023-06-29T14:38:14.429Z,2.22
2023-06-29T14:43:16.290Z,2.40
2023-06-29T14:48:18.377Z,2.45
2023-06-29T14:53:21.166Z,2.55
2023-06-29T14:58:22.694Z,2.50
2023-06-29T15:03:24.274Z,3.28
2023-06-29T15:08:27.347Z,2.17
2023-06-29T15:13:29.338Z,3.05
2023-06-29T15:18:30.809Z,2.22
2023-06-29T15:23:32.765Z,2.53
2023-06-29T15:28:34.253Z,2.65
2023-06-29T15:33:36.967Z,2.65
2023-06-29T15:38:38.769Z,2.63
2023-06-29T15:43:40.311Z,2.35
2023-06-29T15:48:44.593Z,3.05
2023-06-29T15:53:46.264Z,2.92
2023-06-29T15:58:49.308Z,3.10
2023-06-29T16:03:50.957Z,2.85
2023-06-29T16:08:52.717Z,3.50
2023-06-29T16:13:55.706Z,3.15
2023-06-29T16:18:57.726Z,2.97
2023-06-29T16:23:59.987Z,3.20
2023-06-29T16:29:04.595Z,3.42
2023-06-29T16:34:06.390Z,3.45
2023-06-29T16:39:08.897Z,3.55
2023-06-29T16:44:11.339Z,3.92
2023-06-29T16:49:12.947Z,3.75
2023-06-29T16:54:19.944Z,3.40
2023-06-29T16:59:21.800Z,4.00
2023-06-29T17:04:26.782Z,3.95
2023-06-29T17:09:33.520Z,4.07
2023-06-29T17:14:35.537Z,4.32
2023-06-29T17:19:40.048Z,4.05
2023-06-29T17:24:42.052Z,4.25
2023-06-29T17:29:47.581Z,4.07
2023-06-29T17:34:49.380Z,4.40
2023-06-29T17:39:51.115Z,3.90
2023-06-29T17:44:52.610Z,4.18
2023-06-29T17:49:54.274Z,3.53
2023-06-29T17:54:55.980Z,4.90
2023-06-29T17:59:57.804Z,4.03
2023-06-29T18:04:59.881Z,4.10
2023-06-29T18:10:05.787Z,4.35
2023-06-29T18:15:08.185Z,4.10
2023-06-29T18:20:10.846Z,4.95
2023-06-29T18:25:14.933Z,4.85
2023-06-29T18:30:16.580Z,4.53
2023-06-29T18:35:18.233Z,5.68
2023-06-29T18:40:19.753Z,5.72
2023-06-29T18:45:21.720Z,6.10
2023-06-29T18:50:23.948Z,5.88
2023-06-29T18:55:26.852Z,5.07
2023-06-29T19:00:28.456Z,5.82
2023-06-29T19:05:30.925Z,5.28
2023-06-29T19:10:32.430Z,6.10
2023-06-29T19:15:33.876Z,5.75
2023-06-29T19:20:35.729Z,5.43
2023-06-29T19:25:37.271Z,5.63
2023-06-29T19:30:38.804Z,6.15
2023-06-29T19:35:40.295Z,5.53
2023-06-29T19:40:41.892Z,5.35
2023-06-29T19:45:43.654Z,6.65
2023-06-29T19:50:45.911Z,6.07
2023-06-29T19:55:47.562Z,5.55
2023-06-29T20:00:49.242Z,5.00
2023-06-29T20:05:50.777Z,5.25
2023-06-29T20:10:53.396Z,5.60
2023-06-29T20:15:55.058Z,5.15
2023-06-29T20:20:56.824Z,5.65
2023-06-29T20:25:58.330Z,6.93
2023-06-29T20:30:59.894Z,5.93
2023-06-29T20:36:01.383Z,6.10
2023-06-29T20:41:02.854Z,6.13
2023-06-29T20:46:05.358Z,5.50
2023-06-29T20:51:16.915Z,6.40
2023-06-29T20:56:20.736Z,5.82
2023-06-29T21:01:22.379Z,5.70
2023-06-29T21:06:23.970Z,8.10
2023-06-29T21:11:25.621Z,5.53
2023-06-29T21:16:27.225Z,5.85
2023-06-29T21:21:29.519Z,6.00
2023-06-29T21:26:31.668Z,6.45
2023-06-29T21:31:34.891Z,6.05
2023-06-29T21:36:36.718Z,6.80
2023-06-29T21:41:38.437Z,6.57
2023-06-29T21:46:39.952Z,6.35
2023-06-29T21:51:41.486Z,6.38
2023-06-29T21:56:42.958Z,6.65
2023-06-29T22:01:44.426Z,6.05
2023-06-29T22:06:45.911Z,5.50
2023-06-29T22:11:47.416Z,6.20
2023-06-29T22:16:48.905Z,5.25
2023-06-29T22:21:52.354Z,6.18
2023-06-29T22:26:53.846Z,6.00
2023-06-29T22:31:55.288Z,5.82
2023-06-29T22:36:56.808Z,6.22
2023-06-29T22:41:58.367Z,6.18
2023-06-29T22:46:59.845Z,6.45
2023-06-29T22:52:01.476Z,6.13
2023-06-29T22:57:03.097Z,6.35
2023-06-29T23:02:04.772Z,6.38
2023-06-29T23:07:06.686Z,8.00
2023-06-29T23:12:08.891Z,7.28
2023-06-29T23:17:10.405Z,6.25
2023-06-29T23:22:11.892Z,5.95
2023-06-29T23:27:13.564Z,7.10
2023-06-29T23:32:15.057Z,6.20
2023-06-29T23:37:16.526Z,7.95
2023-06-29T23:42:18.448Z,6.43
2023-06-29T23:47:19.906Z,7.60
2023-06-29T23:52:21.411Z,6.70
2023-06-29T23:57:23.054Z,7.30
